createdAt,value
2023-03-21T00:02:00.203Z,25.77
2023-03-21T00:04:40.942Z,25.27
2023-03-21T00:07:15.747Z,21.85
2023-03-21T00:09:46.772Z,27.77
2023-03-21T00:12:17.684Z,24.50
2023-03-21T00:14:48.524Z,22.75
2023-03-21T00:17:23.391Z,25.17
2023-03-21T00:19:56.144Z,23.08
2023-03-21T00:22:31.094Z,16.52
2023-03-21T00:25:02.493Z,20.90
2023-03-21T00:27:53.266Z,21.48
2023-03-21T00:30:25.378Z,21.35
2023-03-21T00:33:03.566Z,19.95
2023-03-21T00:35:58.499Z,20.95
2023-03-21T00:38:28.515Z,17.65
2023-03-21T00:41:04.672Z,16.38
2023-03-21T00:43:35.773Z,14.48
2023-03-21T00:46:07.268Z,18.35
2023-03-21T00:48:38.238Z,16.60
2023-03-21T00:51:26.903Z,20.15
2023-03-21T00:53:59.281Z,17.70
2023-03-21T00:56:32.536Z,16.27
2023-03-21T00:59:03.600Z,14.18
2023-03-21T01:01:35.543Z,20.52
2023-03-21T01:04:14.537Z,18.40
2023-03-21T01:06:46.304Z,17.95
2023-03-21T01:09:20.453Z,23.42
2023-03-21T01:11:52.593Z,16.02
2023-03-21T01:14:25.589Z,14.05
2023-03-21T01:16:56.978Z,22.27
2023-03-21T01:19:50.759Z,16.00
2023-03-21T01:22:20.708Z,19.45
2023-03-21T01:24:58.360Z,19.25
2023-03-21T01:27:31.788Z,20.58
2023-03-21T01:30:11.315Z,21.67
2023-03-21T01:32:48.649Z,20.63
2023-03-21T01:35:20.327Z,20.15
2023-03-21T01:37:52.609Z,20.55
2023-03-21T01:40:28.978Z,19.65
2023-03-21T01:43:36.179Z,21.63
2023-03-21T01:46:30.199Z,19.63
2023-03-21T01:49:28.657Z,18.05
2023-03-21T01:52:23.457Z,20.08
2023-03-21T01:54:58.574Z,28.02
2023-03-21T01:57:43.792Z,22.15
2023-03-21T02:00:23.724Z,18.70
2023-03-21T02:03:15.158Z,21.67
2023-03-21T02:06:04.695Z,32.10
2023-03-21T02:08:40.423Z,23.02
2023-03-21T02:11:16.841Z,26.73
2023-03-21T02:13:50.230Z,23.98
2023-03-21T02:16:48.417Z,24.70
2023-03-21T02:19:41.691Z,24.75
2023-03-21T02:22:45.430Z,23.83
2023-03-21T02:25:55.568Z,23.27
2023-03-21T02:28:31.750Z,22.02
2023-03-21T02:31:38.082Z,21.42
2023-03-21T02:34:42.532Z,24.63
2023-03-21T02:37:18.519Z,21.95
2023-03-21T02:39:57.409Z,30.13
2023-03-21T02:42:32.746Z,23.80
2023-03-21T02:45:27.614Z,30.40
2023-03-21T02:48:10.071Z,25.58
2023-03-21T02:50:53.568Z,21.23
2023-03-21T02:53:27.626Z,23.63
2023-03-21T02:56:00.980Z,27.00
2023-03-21T02:58:35.646Z,23.10
2023-03-21T03:01:10.289Z,28.35
2023-03-21T03:03:48.575Z,28.85
2023-03-21T03:06:46.295Z,24.33
2023-03-21T03:09:30.424Z,24.45
2023-03-21T03:12:17.510Z,26.38
2023-03-21T03:15:03.373Z,22.88
2023-03-21T03:17:40.544Z,24.60
2023-03-21T03:20:46.364Z,24.02
2023-03-21T03:23:21.323Z,16.70
2023-03-21T03:25:57.350Z,24.08
2023-03-21T03:28:34.912Z,20.77
2023-03-21T03:31:10.478Z,19.42
2023-03-21T03:33:48.943Z,19.65
2023-03-21T03:36:33.693Z,21.30
2023-03-21T03:39:11.784Z,24.13
2023-03-21T03:42:10.186Z,17.23
2023-03-21T03:44:44.497Z,18.75
2023-03-21T03:47:34.881Z,18.55
2023-03-21T03:50:33.631Z,19.25
2023-03-21T03:53:18.060Z,22.58
2023-03-21T03:55:53.708Z,26.60
2023-03-21T03:58:39.420Z,18.88
2023-03-21T04:01:18.748Z,23.02
2023-03-21T04:04:01.062Z,18.52
2023-03-21T04:06:42.415Z,19.65
2023-03-21T04:09:20.992Z,13.88
2023-03-21T04:11:55.854Z,17.02
2023-03-21T04:14:35.649Z,12.88
2023-03-21T04:17:10.025Z,28.15
2023-03-21T04:19:41.073Z,17.75
2023-03-21T04:22:13.630Z,19.15
2023-03-21T04:24:46.476Z,17.88
2023-03-21T04:27:17.204Z,15.32
2023-03-21T04:30:08.497Z,19.38
2023-03-21T04:32:57.887Z,19.40
2023-03-21T04:35:30.222Z,19.05
2023-03-21T04:38:01.474Z,20.15
2023-03-21T04:40:40.932Z,19.48
2023-03-21T04:43:11.865Z,20.08
2023-03-21T04:45:43.917Z,17.75
2023-03-21T04:48:15.447Z,17.77
2023-03-21T04:50:47.585Z,18.02
2023-03-21T04:53:18.672Z,14.50
2023-03-21T04:55:53.450Z,20.00
2023-03-21T04:58:26.113Z,16.25
2023-03-21T05:00:58.265Z,16.55
2023-03-21T05:03:35.300Z,21.90
2023-03-21T05:06:07.963Z,18.92
2023-03-21T05:08:39.073Z,19.58
2023-03-21T05:11:12.176Z,19.13
2023-03-21T05:13:47.291Z,15.68
2023-03-21T05:16:18.886Z,18.30
2023-03-21T05:18:52.375Z,14.13
2023-03-21T05:21:24.771Z,17.50
2023-03-21T05:23:55.484Z,19.23
2023-03-21T05:26:27.302Z,17.77
2023-03-21T05:29:15.969Z,19.35
2023-03-21T05:31:48.969Z,18.52
2023-03-21T05:34:20.013Z,19.23
2023-03-21T05:36:52.327Z,15.30
2023-03-21T05:39:24.589Z,21.20
2023-03-21T05:42:04.796Z,14.52
2023-03-21T05:44:36.313Z,19.75
2023-03-21T05:47:10.443Z,16.60
2023-03-21T05:49:48.143Z,12.80
2023-03-21T05:52:19.972Z,15.93
2023-03-21T05:54:52.576Z,13.93
2023-03-21T05:57:29.710Z,13.65
2023-03-21T06:00:04.091Z,18.70
2023-03-21T06:02:46.593Z,15.90
2023-03-21T06:05:40.251Z,20.10
2023-03-21T06:08:21.330Z,15.02
2023-03-21T06:10:52.104Z,12.77
2023-03-21T06:13:23.361Z,20.08
2023-03-21T06:15:57.460Z,28.58
2023-03-21T06:18:29.922Z,19.77
2023-03-21T06:21:20.128Z,19.33
2023-03-21T06:23:55.096Z,16.38
2023-03-21T06:26:27.400Z,19.42
2023-03-21T06:28:58.935Z,14.98
2023-03-21T06:31:30.132Z,16.88
2023-03-21T06:34:06.272Z,16.23
2023-03-21T06:36:37.623Z,24.40
2023-03-21T06:39:09.701Z,18.70
2023-03-21T06:41:43.420Z,18.98
2023-03-21T06:44:14.555Z,17.80
2023-03-21T06:46:55.254Z,19.55
2023-03-21T06:49:27.903Z,20.20
2023-03-21T06:52:01.987Z,14.65
2023-03-21T06:54:32.989Z,21.63
2023-03-21T06:57:08.678Z,17.65
2023-03-21T06:59:42.461Z,25.45
2023-03-21T07:02:17.696Z,15.25
2023-03-21T07:05:01.380Z,15.05
2023-03-21T07:07:33.838Z,15.43
2023-03-21T07:10:07.059Z,21.50
2023-03-21T07:12:47.816Z,35.72
2023-03-21T07:15:23.797Z,26.83
2023-03-21T07:17:55.580Z,15.68
2023-03-21T07:20:27.826Z,15.77
2023-03-21T07:22:59.276Z,14.68
2023-03-21T07:25:31.091Z,48.83
2023-03-21T07:28:02.924Z,14.25
2023-03-21T07:30:34.279Z,11.85
2023-03-21T07:33:05.833Z,12.20
2023-03-21T07:35:40.854Z,19.85
2023-03-21T07:38:12.485Z,25.13
2023-03-21T07:40:43.378Z,17.27
2023-03-21T07:45:48.933Z,37.40
2023-03-21T07:48:20.397Z,21.15
2023-03-21T07:50:51.936Z,27.25
2023-03-21T07:53:23.579Z,20.35
2023-03-21T07:55:57.443Z,14.90
2023-03-21T07:58:32.548Z,29.48
2023-03-21T08:01:03.967Z,37.28
2023-03-21T08:03:34.901Z,17.25
2023-03-21T08:06:06.274Z,13.40
2023-03-21T08:08:37.904Z,21.33
2023-03-21T08:11:09.947Z,22.92
2023-03-21T08:13:41.250Z,13.50
2023-03-21T08:16:12.369Z,15.48
2023-03-21T08:18:43.797Z,11.13
2023-03-21T08:21:15.123Z,25.55
2023-03-21T08:23:46.347Z,22.10
2023-03-21T08:26:19.651Z,23.92
2023-03-21T08:28:50.848Z,28.90
2023-03-21T08:31:22.861Z,15.82
2023-03-21T08:33:55.691Z,33.70
2023-03-21T08:36:30.510Z,20.88
2023-03-21T08:39:06.388Z,18.73
2023-03-21T08:41:39.166Z,36.75
2023-03-21T08:44:12.850Z,27.65
2023-03-21T08:46:46.096Z,17.17
2023-03-21T08:49:17.325Z,20.92
2023-03-21T08:51:48.294Z,17.92
2023-03-21T08:54:24.087Z,21.48
2023-03-21T08:56:54.886Z,18.90
2023-03-21T08:59:25.799Z,19.65
2023-03-21T09:01:57.139Z,25.92
2023-03-21T09:04:30.785Z,21.98
2023-03-21T09:07:06.397Z,15.65
2023-03-21T09:09:38.417Z,15.63
2023-03-21T09:12:11.017Z,14.68
2023-03-21T09:14:42.152Z,14.02
2023-03-21T09:17:17.386Z,20.23
2023-03-21T09:19:50.793Z,18.75
2023-03-21T09:22:22.680Z,21.98
2023-03-21T09:24:54.729Z,24.48
2023-03-21T09:27:34.414Z,23.17
2023-03-21T09:30:07.134Z,15.75
2023-03-21T09:32:39.705Z,19.85
2023-03-21T09:35:13.700Z,17.17
2023-03-21T09:37:44.881Z,14.93
2023-03-21T09:40:41.883Z,11.25
2023-03-21T09:43:34.421Z,23.25
2023-03-21T09:46:29.146Z,13.93
2023-03-21T09:49:08.949Z,15.55
2023-03-21T09:51:44.834Z,13.02
2023-03-21T09:54:29.109Z,14.65
2023-03-21T09:57:12.752Z,10.43
2023-03-21T09:59:47.388Z,14.45
2023-03-21T10:02:33.194Z,17.05
2023-03-21T10:05:15.826Z,15.73
2023-03-21T10:08:28.255Z,14.25
2023-03-21T10:11:04.977Z,23.27
2023-03-21T10:13:40.826Z,18.23
2023-03-21T10:16:16.978Z,18.17
2023-03-21T10:18:50.615Z,13.15
2023-03-21T10:21:56.478Z,18.08
2023-03-21T10:24:26.677Z,19.55
2023-03-21T10:26:58.510Z,18.38
2023-03-21T10:29:45.081Z,24.70
2023-03-21T10:32:18.376Z,17.70
2023-03-21T10:34:59.219Z,16.85
2023-03-21T10:37:30.987Z,16.23
2023-03-21T10:40:01.680Z,18.67
2023-03-21T10:42:34.936Z,19.25
2023-03-21T10:45:17.559Z,22.15
2023-03-21T10:47:51.165Z,15.48
2023-03-21T10:50:26.857Z,21.65
2023-03-21T10:53:01.794Z,16.83
2023-03-21T10:55:37.116Z,20.55
2023-03-21T10:58:19.739Z,17.45
2023-03-21T11:00:51.467Z,16.77
2023-03-21T11:03:32.320Z,17.08
2023-03-21T11:06:28.721Z,16.60
2023-03-21T11:09:24.204Z,20.33
2023-03-21T11:12:20.027Z,15.15
2023-03-21T11:14:53.124Z,16.75
2023-03-21T11:17:28.916Z,16.30
2023-03-21T11:20:11.739Z,14.55
2023-03-21T11:22:44.500Z,19.98
2023-03-21T11:25:38.726Z,18.83
2023-03-21T11:28:23.350Z,19.70
2023-03-21T11:30:59.150Z,22.55
2023-03-21T11:33:37.483Z,15.70
2023-03-21T11:36:23.015Z,19.63
2023-03-21T11:39:05.333Z,18.50
2023-03-21T11:41:36.594Z,37.58
2023-03-21T11:44:07.779Z,19.20
2023-03-21T11:46:43.057Z,18.02
2023-03-21T11:49:13.839Z,17.75
2023-03-21T11:51:47.264Z,16.48
2023-03-21T11:54:47.311Z,13.98
2023-03-21T11:57:32.300Z,15.57
2023-03-21T12:00:16.768Z,14.27
2023-03-21T12:02:57.354Z,18.05
2023-03-21T12:05:45.403Z,13.23
2023-03-21T12:08:43.068Z,19.58
2023-03-21T12:11:41.313Z,15.55
2023-03-21T12:14:53.482Z,14.13
2023-03-21T12:17:34.697Z,16.52
2023-03-21T12:20:39.292Z,17.50
2023-03-21T12:23:49.111Z,11.88
2023-03-21T12:26:34.597Z,14.18
2023-03-21T12:29:28.291Z,12.75
2023-03-21T12:32:40.712Z,13.00
2023-03-21T12:35:26.105Z,13.60
2023-03-21T12:38:20.447Z,12.93
2023-03-21T12:41:07.116Z,13.45
2023-03-21T12:43:45.093Z,18.30
2023-03-21T12:46:50.515Z,13.55
2023-03-21T12:49:30.956Z,15.40
2023-03-21T12:52:28.449Z,12.95
2023-03-21T12:55:20.831Z,14.38
2023-03-21T12:58:04.095Z,14.80
2023-03-21T13:00:56.289Z,15.15
2023-03-21T13:03:39.853Z,14.80
2023-03-21T13:06:20.450Z,17.02
2023-03-21T13:09:28.610Z,13.98
2023-03-21T13:12:25.667Z,15.00
2023-03-21T13:15:24.650Z,16.38
2023-03-21T13:18:26.634Z,13.30
2023-03-21T13:21:00.222Z,12.40
2023-03-21T13:23:40.181Z,13.80
2023-03-21T13:26:13.378Z,12.40
2023-03-21T13:28:45.014Z,14.77
2023-03-21T13:31:26.645Z,11.40
2023-03-21T13:34:01.099Z,11.20
2023-03-21T13:36:34.433Z,13.07
2023-03-21T13:39:08.024Z,17.10
2023-03-21T13:41:40.709Z,14.13
2023-03-21T13:44:23.552Z,12.82
2023-03-21T13:47:04.516Z,12.35
2023-03-21T13:49:36.604Z,15.48
2023-03-21T13:52:13.339Z,13.90
2023-03-21T13:54:55.468Z,14.80
2023-03-21T13:57:31.321Z,17.63
2023-03-21T14:00:40.574Z,13.90
2023-03-21T14:03:15.540Z,14.48
2023-03-21T14:05:52.368Z,15.38
2023-03-21T14:08:36.501Z,15.07
2023-03-21T14:11:11.546Z,12.68
2023-03-21T14:13:51.265Z,12.20
2023-03-21T14:16:24.651Z,16.90
2023-03-21T14:18:59.010Z,13.85
2023-03-21T14:21:33.446Z,14.52
2023-03-21T14:24:13.451Z,10.75
2023-03-21T14:27:02.941Z,13.35
2023-03-21T14:29:35.871Z,13.13
2023-03-21T14:32:07.809Z,13.43
2023-03-21T14:34:39.269Z,12.30
2023-03-21T14:37:12.936Z,15.85
2023-03-21T14:39:43.823Z,15.57
2023-03-21T14:42:15.892Z,17.00
2023-03-21T14:44:55.558Z,16.00
2023-03-21T14:47:33.122Z,13.48
2023-03-21T14:50:07.766Z,13.90
2023-03-21T14:52:39.618Z,13.82
2023-03-21T14:55:17.832Z,12.38
2023-03-21T14:57:50.350Z,15.73
2023-03-21T15:00:32.589Z,18.48
2023-03-21T15:03:04.505Z,12.60
2023-03-21T15:05:38.499Z,19.42
2023-03-21T15:08:11.351Z,14.18
2023-03-21T15:10:44.689Z,17.67
2023-03-21T15:13:21.201Z,19.42
2023-03-21T15:15:57.879Z,14.50
2023-03-21T15:18:41.675Z,13.73
2023-03-21T15:21:42.930Z,13.50
2023-03-21T15:24:20.826Z,14.05
2023-03-21T15:26:52.055Z,14.10
2023-03-21T15:29:35.402Z,15.02
2023-03-21T15:32:18.503Z,14.13
2023-03-21T15:34:49.052Z,15.27
2023-03-21T15:37:25.682Z,18.10
2023-03-21T15:40:10.832Z,15.77
2023-03-21T15:42:43.145Z,13.13
2023-03-21T15:45:27.712Z,13.75
2023-03-21T15:48:28.876Z,16.88
2023-03-21T15:51:03.418Z,15.60
2023-03-21T15:53:37.152Z,15.77
2023-03-21T15:56:17.054Z,15.57
2023-03-21T15:58:50.625Z,12.18
2023-03-21T16:01:23.520Z,16.95
2023-03-21T16:03:59.735Z,17.15
2023-03-21T16:06:35.335Z,14.15
2023-03-21T16:09:11.855Z,20.17
2023-03-21T16:11:56.855Z,15.27
2023-03-21T16:14:29.337Z,15.85
2023-03-21T16:17:00.367Z,31.42
2023-03-21T16:19:31.800Z,15.02
2023-03-21T16:22:02.768Z,14.32
2023-03-21T16:24:34.142Z,16.75
2023-03-21T16:27:05.054Z,18.90
2023-03-21T16:29:35.953Z,20.23
2023-03-21T16:32:11.740Z,15.68
2023-03-21T16:34:43.765Z,16.13
2023-03-21T16:37:18.145Z,15.48
2023-03-21T16:39:50.109Z,19.88
2023-03-21T16:42:20.662Z,15.70
2023-03-21T16:44:51.209Z,14.93
2023-03-21T16:47:24.740Z,14.45
2023-03-21T16:49:56.651Z,18.38
2023-03-21T16:52:28.297Z,13.75
2023-03-21T16:54:59.500Z,18.98
2023-03-21T16:57:30.860Z,18.02
2023-03-21T17:00:04.463Z,14.60
2023-03-21T17:02:35.686Z,14.55
2023-03-21T17:05:08.183Z,17.65
2023-03-21T17:07:44.999Z,15.88
2023-03-21T17:10:27.021Z,16.70
2023-03-21T17:13:00.439Z,15.35
2023-03-21T17:15:33.936Z,19.98
2023-03-21T17:18:06.170Z,17.10
2023-03-21T17:20:39.017Z,14.52
2023-03-21T17:23:11.277Z,17.83
2023-03-21T17:25:42.227Z,12.48
2023-03-21T17:28:12.919Z,14.85
2023-03-21T17:30:44.358Z,13.10
2023-03-21T17:33:16.356Z,12.20
2023-03-21T17:35:49.475Z,12.68
2023-03-21T17:38:20.233Z,12.75
2023-03-21T17:40:51.223Z,18.30
2023-03-21T17:43:24.009Z,14.15
2023-03-21T17:45:55.385Z,15.88
2023-03-21T17:48:26.220Z,11.98
2023-03-21T17:50:57.596Z,14.10
2023-03-21T17:53:28.422Z,13.93
2023-03-21T17:55:59.081Z,11.68
2023-03-21T17:58:31.412Z,15.82
2023-03-21T18:01:02.299Z,12.27
2023-03-21T18:03:41.180Z,15.20
2023-03-21T18:06:17.415Z,15.15
2023-03-21T18:08:49.197Z,15.48
2023-03-21T18:11:21.389Z,18.02
2023-03-21T18:13:59.424Z,13.20
2023-03-21T18:16:42.587Z,15.93
2023-03-21T18:19:14.284Z,12.10
2023-03-21T18:21:45.808Z,16.08
2023-03-21T18:24:17.317Z,19.35
2023-03-21T18:26:48.475Z,17.60
2023-03-21T18:32:12.324Z,17.85
2023-03-21T18:34:45.390Z,19.83
2023-03-21T18:37:16.016Z,17.90
2023-03-21T18:39:47.469Z,19.67
2023-03-21T18:42:20.227Z,20.48
2023-03-21T18:44:55.000Z,17.88
2023-03-21T18:47:28.877Z,21.00
2023-03-21T18:50:14.145Z,18.35
2023-03-21T18:52:45.315Z,22.48
2023-03-21T18:55:16.133Z,21.23
2023-03-21T18:57:46.877Z,23.20
2023-03-21T19:00:22.439Z,22.92
2023-03-21T19:03:04.279Z,24.30
2023-03-21T19:05:41.936Z,21.55
2023-03-21T19:08:13.152Z,23.35
2023-03-21T19:10:44.425Z,19.95
2023-03-21T19:13:15.019Z,21.17
2023-03-21T19:15:48.953Z,22.77
2023-03-21T19:18:49.503Z,24.23
2023-03-21T19:21:11.368Z,22.02
2023-03-21T19:24:16.394Z,21.90
2023-03-21T19:26:32.892Z,21.25
2023-03-21T19:29:03.568Z,19.50
2023-03-21T19:31:34.363Z,21.90
2023-03-21T19:34:05.751Z,21.13
2023-03-21T19:36:36.837Z,24.05
2023-03-21T19:39:07.763Z,23.08
2023-03-21T19:41:40.481Z,25.75
2023-03-21T19:44:13.901Z,27.92
2023-03-21T19:46:44.634Z,23.23
2023-03-21T19:49:22.111Z,28.25
2023-03-21T19:51:55.880Z,28.05
2023-03-21T19:54:38.927Z,29.90
2023-03-21T19:57:10.749Z,33.45
2023-03-21T19:59:42.928Z,37.05
2023-03-21T20:02:34.636Z,36.88
2023-03-21T20:05:06.255Z,28.65
2023-03-21T20:07:37.291Z,32.05
2023-03-21T20:10:11.875Z,43.00
2023-03-21T20:12:43.246Z,39.90
2023-03-21T20:15:20.873Z,30.10
2023-03-21T20:17:52.374Z,33.55
2023-03-21T20:20:24.855Z,27.67
2023-03-21T20:23:07.733Z,34.20
2023-03-21T20:25:44.054Z,32.90
2023-03-21T20:28:23.834Z,35.13
2023-03-21T20:31:01.601Z,33.13
2023-03-21T20:33:32.879Z,36.22
2023-03-21T20:38:59.294Z,32.85
2023-03-21T20:41:30.423Z,29.10
2023-03-21T20:46:57.948Z,34.17
2023-03-21T20:49:29.099Z,33.35
2023-03-21T20:52:51.833Z,36.45
2023-03-21T20:54:51.066Z,32.20
2023-03-21T20:57:22.202Z,38.38
2023-03-21T20:59:53.332Z,34.22
2023-03-21T21:02:24.593Z,32.72
2023-03-21T21:05:28.667Z,32.22
2023-03-21T21:07:49.851Z,36.42
2023-03-21T21:10:22.325Z,33.45
2023-03-21T21:12:54.710Z,32.00
2023-03-21T21:15:25.565Z,35.25
2023-03-21T21:18:08.081Z,34.03
2023-03-21T21:20:39.745Z,36.47
2023-03-21T21:23:13.928Z,36.25
2023-03-21T21:25:46.766Z,36.47
2023-03-21T21:28:19.700Z,31.73
2023-03-21T21:30:54.184Z,43.63
2023-03-21T21:33:26.226Z,38.97
2023-03-21T21:35:57.558Z,34.75
2023-03-21T21:38:28.712Z,40.05
2023-03-21T21:41:01.219Z,41.92
2023-03-21T21:43:35.723Z,37.78
2023-03-21T21:46:09.287Z,30.60
2023-03-21T21:48:42.034Z,33.22
2023-03-21T21:51:12.853Z,34.35
2023-03-21T21:53:43.875Z,39.33
2023-03-21T21:56:15.165Z,37.83
2023-03-21T21:58:55.515Z,40.05
2023-03-21T22:01:27.104Z,35.30
2023-03-21T22:03:59.193Z,37.55
2023-03-21T22:06:30.157Z,30.58
2023-03-21T22:09:01.962Z,38.47
2023-03-21T22:11:32.732Z,33.60
2023-03-21T22:14:04.246Z,38.97
2023-03-21T22:16:34.703Z,36.20
2023-03-21T22:19:05.640Z,36.38
2023-03-21T22:21:39.577Z,39.33
2023-03-21T22:24:10.889Z,35.55
2023-03-21T22:26:41.894Z,40.10
2023-03-21T22:29:12.943Z,38.60
2023-03-21T22:31:45.724Z,33.35
2023-03-21T22:34:16.492Z,41.03
2023-03-21T22:36:47.937Z,39.25
2023-03-21T22:39:27.115Z,38.53
2023-03-21T22:42:05.670Z,33.38
2023-03-21T22:44:36.771Z,39.72
2023-03-21T22:47:10.290Z,34.05
2023-03-21T22:49:43.476Z,38.20
2023-03-21T22:52:14.934Z,31.55
2023-03-21T22:54:46.817Z,33.97
2023-03-21T22:57:18.726Z,31.73
2023-03-21T22:59:50.686Z,32.80
2023-03-21T23:02:22.047Z,30.08
2023-03-21T23:04:53.543Z,42.67
2023-03-21T23:07:24.259Z,36.20
2023-03-21T23:09:55.108Z,39.90
2023-03-21T23:12:26.231Z,30.35
2023-03-21T23:14:57.406Z,26.38
2023-03-21T23:17:28.157Z,27.67
2023-03-21T23:19:58.996Z,39.05
2023-03-21T23:22:36.844Z,31.95
2023-03-21T23:25:09.933Z,28.10
2023-03-21T23:27:40.579Z,25.23
2023-03-21T23:30:11.886Z,22.65
2023-03-21T23:32:42.940Z,25.52
2023-03-21T23:35:13.573Z,29.52
2023-03-21T23:37:50.948Z,25.80
2023-03-21T23:40:22.800Z,25.65
2023-03-21T23:42:53.743Z,32.35
2023-03-21T23:45:24.675Z,31.95
2023-03-21T23:47:56.184Z,30.30
2023-03-21T23:50:27.646Z,33.08
2023-03-21T23:52:58.318Z,31.50
2023-03-21T23:55:29.125Z,34.05
2023-03-21T23:58:03.146Z,31.20
